Time,TemperatureF,DewpointF,PressureIn,WindDirection,WindDirectionDegrees,WindSpeedMPH,WindSpeedGustMPH,Humidity,HourlyPrecipIn,Conditions,Clouds,dailyrainin,SoftwareType,DateUTC
2013-09-29 00:02:00,51.8,46.5,30.18,NW,315,0.0,0.0,82,0.00,,,0.00,WUHU216HW,2013-09-29 04:02:00,
2013-09-29 00:07:00,51.7,46.0,30.18,NW,315,0.0,0.0,81,0.00,,,0.00,WUHU216HW,2013-09-29 04:07:00,
2013-09-29 00:12:00,51.5,46.2,30.18,NW,315,0.0,0.0,82,0.00,,,0.00,WUHU216HW,2013-09-29 04:12:00,
2013-09-29 00:17:00,51.5,45.8,30.18,NW,315,0.0,0.0,81,0.00,,,0.00,WUHU216HW,2013-09-29 04:17:00,
2013-09-29 00:22:00,51.7,46.4,30.18,NW,315,0.0,0.0,82,0.00,,,0.00,WUHU216HW,2013-09-29 04:22:00,
2013-09-29 00:27:00,51.8,46.2,30.18,NW,315,0.0,0.0,81,0.00,,,0.00,WUHU216HW,2013-09-29 04:27:00,
2013-09-29 00:32:00,51.8,46.2,30.18,NW,315,0.0,0.0,81,0.00,,,0.00,WUHU216HW,2013-09-29 04:32:00,
2013-09-29 00:37:00,51.8,46.2,30.18,NW,315,0.0,0.0,81,0.00,,,0.00,WUHU216HW,2013-09-29 04:37:00,
2013-09-29 00:42:00,51.8,46.2,30.18,NW,315,0.0,0.0,81,0.00,,,0.00,WUHU216HW,2013-09-29 04:42:00,
2013-09-29 00:47:00,51.5,45.8,30.17,NW,315,0.0,0.0,81,0.00,,,0.00,WUHU216HW,2013-09-29 04:47:00,
2013-09-29 00:53:00,51.5,45.8,30.17,NW,315,0.0,0.0,81,0.00,,,0.00,WUHU216HW,2013-09-29 04:53:00,
2013-09-29 00:58:00,51.3,46.0,30.17,NW,315,0.0,0.0,82,0.00,,,0.00,WUHU216HW,2013-09-29 04:58:00,
2013-09-29 01:03:00,51.1,45.8,30.17,NW,315,0.0,0.0,82,0.00,,,0.00,WUHU216HW,2013-09-29 05:03:00,
2013-09-29 01:08:00,50.8,45.5,30.17,NW,315,0.0,0.0,82,0.00,,,0.00,WUHU216HW,2013-09-29 05:08:00,
2013-09-29 01:13:00,50.6,45.3,30.17,NW,315,0.0,0.0,82,0.00,,,0.00,WUHU216HW,2013-09-29 05:13:00,
2013-09-29 01:18:00,50.4,45.1,30.17,NW,315,0.0,0.0,82,0.00,,,0.00,WUHU216HW,2013-09-29 05:18:00,
2013-09-29 01:23:00,50.6,45.3,30.17,NW,315,0.0,0.0,82,0.00,,,0.00,WUHU216HW,2013-09-29 05:23:00,
2013-09-29 01:28:00,50.6,45.3,30.16,NW,315,0.0,0.0,82,0.00,,,0.00,WUHU216HW,2013-09-29 05:28:00,
2013-09-29 01:33:00,50.6,45.3,30.16,NW,315,0.0,0.0,82,0.00,,,0.00,WUHU216HW,2013-09-29 05:33:00,
2013-09-29 01:38:00,50.6,45.3,30.17,NW,315,0.0,0.0,82,0.00,,,0.00,WUHU216HW,2013-09-29 05:38:00,
2013-09-29 01:43:00,50.8,45.5,30.17,NW,315,0.0,0.0,82,0.00,,,0.00,WUHU216HW,2013-09-29 05:43:00,
2013-09-29 01:48:00,50.6,45.3,30.17,WNW,293,0.0,0.0,82,0.00,,,0.00,WUHU216HW,2013-09-29 05:48:00,
2013-09-29 01:53:00,50.4,45.1,30.17,WSW,248,0.0,0.4,82,0.00,,,0.00,WUHU216HW,2013-09-29 05:53:00,
2013-09-29 01:58:00,49.9,44.6,30.17,WSW,248,0.0,0.4,82,0.00,,,0.00,WUHU216HW,2013-09-29 05:58:00,
2013-09-29 02:03:00,49.7,44.4,30.17,SW,225,0.0,0.4,82,0.00,,,0.00,WUHU216HW,2013-09-29 06:03:00,
2013-09-29 02:08:00,49.7,44.6,30.16,SW,225,0.0,0.4,83,0.00,,,0.00,WUHU216HW,2013-09-29 06:08:00,
2013-09-29 02:13:00,49.7,44.6,30.16,SW,225,0.2,0.2,83,0.00,,,0.00,WUHU216HW,2013-09-29 06:13:00,
2013-09-29 02:18:00,49.7,44.6,30.16,SW,225,0.0,0.2,83,0.00,,,0.00,WUHU216HW,2013-09-29 06:18:00,
2013-09-29 02:23:00,49.7,44.6,30.16,SE,135,0.0,0.2,83,0.00,,,0.00,WUHU216HW,2013-09-29 06:23:00,
2013-09-29 02:28:00,49.7,44.6,30.16,SE,135,0.0,0.0,83,0.00,,,0.00,WUHU216HW,2013-09-29 06:28:00,
2013-09-29 02:33:00,49.7,44.4,30.15,ESE,113,0.0,0.0,82,0.00,,,0.00,WUHU216HW,2013-09-29 06:33:00,
2013-09-29 02:38:00,49.5,44.2,30.15,ESE,113,0.0,0.0,82,0.00,,,0.00,WUHU216HW,2013-09-29 06:38:00,
2013-09-29 02:43:00,49.5,44.2,30.15,ESE,113,0.0,0.0,82,0.00,,,0.00,WUHU216HW,2013-09-29 06:43:00,
2013-09-29 02:49:00,49.5,44.2,30.15,ESE,113,0.0,0.0,82,0.00,,,0.00,WUHU216HW,2013-09-29 06:49:00,
2013-09-29 02:54:00,49.3,44.0,30.15,ESE,113,0.0,0.0,82,0.00,,,0.00,WUHU216HW,2013-09-29 06:54:00,
2013-09-29 02:59:00,49.1,44.1,30.15,ESE,113,0.0,0.0,83,0.00,,,0.00,WUHU216HW,2013-09-29 06:59:00,
2013-09-29 03:03:00,48.8,44.1,30.15,ESE,113,0.0,0.0,84,0.00,,,0.00,WUHU216HW,2013-09-29 07:03:00,
2013-09-29 03:08:00,48.6,43.7,30.15,ESE,113,0.0,0.0,83,0.00,,,0.00,WUHU216HW,2013-09-29 07:08:00,
2013-09-29 03:13:00,48.6,43.7,30.15,ENE,68,0.0,0.0,83,0.00,,,0.00,WUHU216HW,2013-09-29 07:13:00,
2013-09-29 03:18:00,48.6,43.9,30.15,ENE,68,0.0,0.0,84,0.00,,,0.00,WUHU216HW,2013-09-29 07:18:00,
2013-09-29 03:23:00,48.6,43.7,30.15,ENE,68,0.0,0.0,83,0.00,,,0.00,WUHU216HW,2013-09-29 07:23:00,
2013-09-29 03:28:00,48.6,43.7,30.15,ENE,68,0.0,0.2,83,0.00,,,0.00,WUHU216HW,2013-09-29 07:28:00,
2013-09-29 03:33:00,48.6,43.9,30.15,North,0,0.0,0.4,84,0.00,,,0.00,WUHU216HW,2013-09-29 07:33:00,
2013-09-29 03:38:00,48.6,43.9,30.15,North,0,0.0,0.4,84,0.00,,,0.00,WUHU216HW,2013-09-29 07:38:00,
2013-09-29 03:43:00,48.6,43.9,30.15,North,0,0.0,0.0,84,0.00,,,0.00,WUHU216HW,2013-09-29 07:43:00,
2013-09-29 03:49:00,48.6,43.9,30.15,North,0,0.0,0.0,84,0.00,,,0.00,WUHU216HW,2013-09-29 07:49:00,
2013-09-29 03:53:00,48.6,43.9,30.15,ENE,68,0.4,0.4,84,0.00,,,0.00,WUHU216HW,2013-09-29 07:53:00,
2013-09-29 03:58:00,48.6,43.9,30.15,NNW,338,0.0,0.4,84,0.00,,,0.00,WUHU216HW,2013-09-29 07:58:00,
2013-09-29 04:03:00,48.6,43.9,30.15,NNW,338,0.0,0.4,84,0.00,,,0.00,WUHU216HW,2013-09-29 08:03:00,
2013-09-29 04:08:00,48.6,43.9,30.15,NNW,338,0.0,0.4,84,0.00,,,0.00,WUHU216HW,2013-09-29 08:08:00,
2013-09-29 04:13:00,48.6,43.9,30.15,NNW,338,0.0,0.4,84,0.00,,,0.00,WUHU216HW,2013-09-29 08:13:00,
2013-09-29 04:18:00,48.4,43.7,30.15,NNW,338,0.0,0.0,84,0.00,,,0.00,WUHU216HW,2013-09-29 08:18:00,
2013-09-29 04:23:00,48.2,43.6,30.14,NNW,338,0.0,0.0,84,0.00,,,0.00,WUHU216HW,2013-09-29 08:23:00,
2013-09-29 04:29:00,48.1,43.5,30.14,NNW,338,0.0,0.0,84,0.00,,,0.00,WUHU216HW,2013-09-29 08:29:00,
2013-09-29 04:33:00,48.1,43.5,30.14,NNW,338,0.0,0.2,84,0.00,,,0.00,WUHU216HW,2013-09-29 08:33:00,
2013-09-29 04:39:00,48.1,43.5,30.14,NNW,338,0.0,0.2,84,0.00,,,0.00,WUHU216HW,2013-09-29 08:39:00,
2013-09-29 04:43:00,48.1,43.5,30.14,NNW,338,0.0,0.0,84,0.00,,,0.00,WUHU216HW,2013-09-29 08:43:00,
2013-09-29 04:48:00,48.1,43.5,30.14,NW,315,0.0,0.0,84,0.00,,,0.00,WUHU216HW,2013-09-29 08:48:00,
2013-09-29 04:54:00,47.9,43.3,30.14,NW,315,0.0,0.0,84,0.00,,,0.00,WUHU216HW,2013-09-29 08:54:00,
2013-09-29 04:59:00,47.7,43.1,30.14,NW,315,0.0,0.0,84,0.00,,,0.00,WUHU216HW,2013-09-29 08:59:00,
2013-09-29 05:04:00,47.5,42.9,30.14,NW,315,0.0,0.0,84,0.00,,,0.00,WUHU216HW,2013-09-29 09:04:00,
2013-09-29 05:09:00,47.2,42.6,30.14,NW,315,0.0,0.0,84,0.00,,,0.00,WUHU216HW,2013-09-29 09:09:00,
2013-09-29 05:14:00,47.2,42.6,30.14,SSW,203,0.2,1.1,84,0.00,,,0.00,WUHU216HW,2013-09-29 09:14:00,
2013-09-29 05:19:00,47.0,42.8,30.14,SW,225,0.0,1.1,85,0.00,,,0.00,WUHU216HW,2013-09-29 09:19:00,
2013-09-29 05:24:00,46.8,42.6,30.14,SW,225,0.0,0.4,85,0.00,,,0.00,WUHU216HW,2013-09-29 09:24:00,
2013-09-29 05:29:00,46.6,42.4,30.14,SW,225,0.0,0.4,85,0.00,,,0.00,WUHU216HW,2013-09-29 09:29:00,
2013-09-29 05:34:00,46.6,42.0,30.14,SW,225,0.0,0.0,84,0.00,,,0.00,WUHU216HW,2013-09-29 09:34:00,
2013-09-29 05:39:00,46.6,42.0,30.14,SW,225,0.0,0.0,84,0.00,,,0.00,WUHU216HW,2013-09-29 09:39:00,
2013-09-29 05:44:00,46.6,42.0,30.14,SW,225,0.0,0.0,84,0.00,,,0.00,WUHU216HW,2013-09-29 09:44:00,
2013-09-29 05:49:00,46.6,42.0,30.14,SW,225,0.0,0.0,84,0.00,,,0.00,WUHU216HW,2013-09-29 09:49:00,
2013-09-29 05:54:00,46.4,42.0,30.14,SW,225,0.0,0.0,84,0.00,,,0.00,WUHU216HW,2013-09-29 09:54:00,
2013-09-29 05:59:00,46.3,41.8,30.14,SW,225,0.0,0.0,84,0.00,,,0.00,WUHU216HW,2013-09-29 09:59:00,
2013-09-29 06:04:00,46.1,41.9,30.14,SW,225,0.0,0.0,85,0.00,,,0.00,WUHU216HW,2013-09-29 10:04:00,
2013-09-29 06:09:00,45.9,41.4,30.14,SW,225,0.0,0.0,84,0.00,,,0.00,WUHU216HW,2013-09-29 10:09:00,
2013-09-29 06:14:00,45.9,41.4,30.14,SW,225,0.0,0.0,84,0.00,,,0.00,WUHU216HW,2013-09-29 10:14:00,
2013-09-29 06:19:00,45.9,41.4,30.14,SW,225,0.0,0.0,84,0.00,,,0.00,WUHU216HW,2013-09-29 10:19:00,
2013-09-29 06:24:00,45.7,41.2,30.14,SW,225,0.0,0.0,84,0.00,,,0.00,WUHU216HW,2013-09-29 10:24:00,
2013-09-29 06:29:00,45.7,41.2,30.14,SW,225,0.0,0.0,84,0.00,,,0.00,WUHU216HW,2013-09-29 10:29:00,
2013-09-29 06:34:00,45.4,41.1,30.14,SW,225,0.0,0.0,85,0.00,,,0.00,WUHU216HW,2013-09-29 10:34:00,
2013-09-29 06:39:00,45.2,41.0,30.14,SW,225,0.0,0.0,85,0.00,,,0.00,WUHU216HW,2013-09-29 10:39:00,
2013-09-29 06:44:00,45.0,40.8,30.15,SW,225,0.0,0.0,85,0.00,,,0.00,WUHU216HW,2013-09-29 10:44:00,
2013-09-29 06:49:00,44.8,40.6,30.15,SW,225,0.0,0.0,85,0.00,,,0.00,WUHU216HW,2013-09-29 10:49:00,
2013-09-29 06:54:00,44.8,40.6,30.15,SW,225,0.0,0.0,85,0.00,,,0.00,WUHU216HW,2013-09-29 10:54:00,
2013-09-29 06:59:00,44.8,40.6,30.15,SW,225,0.0,0.0,85,0.00,,,0.00,WUHU216HW,2013-09-29 10:59:00,
2013-09-29 07:04:00,44.8,40.6,30.15,SW,225,0.0,0.0,85,0.00,,,0.00,WUHU216HW,2013-09-29 11:04:00,
2013-09-29 07:09:00,44.6,40.4,30.15,SW,225,0.0,0.0,85,0.00,,,0.00,WUHU216HW,2013-09-29 11:09:00,
2013-09-29 07:14:00,44.5,40.2,30.15,SW,225,0.0,0.0,85,0.00,,,0.00,WUHU216HW,2013-09-29 11:14:00,
2013-09-29 07:19:00,44.3,40.1,30.15,SW,225,0.0,0.0,85,0.00,,,0.00,WUHU216HW,2013-09-29 11:19:00,
2013-09-29 07:24:00,44.5,40.2,30.15,SW,225,0.0,0.0,85,0.00,,,0.00,WUHU216HW,2013-09-29 11:24:00,
2013-09-29 07:29:00,44.5,40.2,30.15,SW,225,0.0,0.0,85,0.00,,,0.00,WUHU216HW,2013-09-29 11:29:00,
2013-09-29 07:34:00,44.6,40.4,30.15,SW,225,0.0,0.0,85,0.00,,,0.00,WUHU216HW,2013-09-29 11:34:00,
2013-09-29 07:39:00,44.8,40.9,30.15,SW,225,0.0,0.0,86,0.00,,,0.00,WUHU216HW,2013-09-29 11:39:00,
2013-09-29 07:44:00,44.8,40.6,30.15,SW,225,0.0,0.0,85,0.00,,,0.00,WUHU216HW,2013-09-29 11:44:00,
2013-09-29 07:49:00,44.8,40.6,30.15,SW,225,0.0,0.0,85,0.00,,,0.00,WUHU216HW,2013-09-29 11:49:00,
2013-09-29 07:54:00,45.0,41.0,30.15,SW,225,0.0,0.0,86,0.00,,,0.00,WUHU216HW,2013-09-29 11:54:00,
2013-09-29 07:59:00,45.2,41.2,30.16,SW,225,0.0,0.0,86,0.00,,,0.00,WUHU216HW,2013-09-29 11:59:00,
2013-09-29 08:04:00,45.4,41.4,30.16,SW,225,0.0,0.0,86,0.00,,,0.00,WUHU216HW,2013-09-29 12:04:00,
2013-09-29 08:09:00,45.5,41.6,30.15,SW,225,0.0,0.0,86,0.00,,,0.00,WUHU216HW,2013-09-29 12:09:00,
2013-09-29 08:14:00,45.7,41.8,30.15,SW,225,0.0,0.0,86,0.00,,,0.00,WUHU216HW,2013-09-29 12:14:00,
2013-09-29 08:19:00,45.9,41.9,30.15,SW,225,0.0,0.0,86,0.00,,,0.00,WUHU216HW,2013-09-29 12:19:00,
2013-09-29 08:24:00,46.4,42.5,30.15,SW,225,0.0,0.0,86,0.00,,,0.00,WUHU216HW,2013-09-29 12:24:00,
2013-09-29 08:29:00,46.6,43.0,30.15,SSW,203,0.0,0.2,87,0.00,,,0.00,WUHU216HW,2013-09-29 12:29:00,
2013-09-29 08:34:00,47.2,43.6,30.15,SSE,158,0.0,0.4,87,0.00,,,0.00,WUHU216HW,2013-09-29 12:34:00,
2013-09-29 08:39:00,47.7,44.0,30.15,South,180,0.9,0.9,87,0.00,,,0.00,WUHU216HW,2013-09-29 12:39:00,
2013-09-29 08:44:00,48.4,44.7,30.15,SSE,158,0.0,1.1,87,0.00,,,0.00,WUHU216HW,2013-09-29 12:44:00,
2013-09-29 08:49:00,49.1,45.7,30.15,West,270,0.0,1.1,88,0.00,,,0.00,WUHU216HW,2013-09-29 12:49:00,
2013-09-29 08:54:00,50.0,46.5,30.15,WSW,248,0.0,1.1,88,0.00,,,0.00,WUHU216HW,2013-09-29 12:54:00,
2013-09-29 08:59:00,50.8,47.9,30.15,NNW,338,0.0,0.2,90,0.00,,,0.00,WUHU216HW,2013-09-29 12:59:00,
2013-09-29 09:04:00,51.7,48.5,30.15,SE,135,0.0,0.2,89,0.00,,,0.00,WUHU216HW,2013-09-29 13:04:00,
2013-09-29 09:09:00,52.4,49.2,30.15,SSE,158,0.9,0.9,89,0.00,,,0.00,WUHU216HW,2013-09-29 13:09:00,
2013-09-29 09:14:00,53.1,49.6,30.15,NW,315,0.0,0.9,88,0.00,,,0.00,WUHU216HW,2013-09-29 13:14:00,
2013-09-29 09:19:00,54.0,50.2,30.15,North,0,0.7,2.0,87,0.00,,,0.00,WUHU216HW,2013-09-29 13:19:00,
2013-09-29 09:24:00,54.7,50.6,30.15,NNE,23,0.4,2.0,86,0.00,,,0.00,WUHU216HW,2013-09-29 13:24:00,
2013-09-29 09:29:00,55.3,51.1,30.15,SW,225,0.4,1.1,86,0.00,,,0.00,WUHU216HW,2013-09-29 13:29:00,
2013-09-29 09:34:00,55.8,51.3,30.15,WSW,248,1.8,1.8,85,0.00,,,0.00,WUHU216HW,2013-09-29 13:34:00,
2013-09-29 09:39:00,56.5,52.0,30.15,SSE,158,1.8,3.6,85,0.00,,,0.00,WUHU216HW,2013-09-29 13:39:00,
2013-09-29 09:44:00,57.2,52.1,30.15,SSW,203,1.3,3.8,83,0.00,,,0.00,WUHU216HW,2013-09-29 13:44:00,
2013-09-29 09:49:00,57.6,52.5,30.15,SE,135,0.0,3.8,83,0.00,,,0.00,WUHU216HW,2013-09-29 13:49:00,
2013-09-29 09:54:00,58.3,52.8,30.15,South,180,0.0,1.6,82,0.00,,,0.00,WUHU216HW,2013-09-29 13:54:00,
2013-09-29 09:59:00,59.0,53.3,30.15,South,180,0.2,1.6,81,0.00,,,0.00,WUHU216HW,2013-09-29 13:59:00,
2013-09-29 10:04:00,59.4,53.3,30.15,East,90,0.2,0.4,80,0.00,,,0.00,WUHU216HW,2013-09-29 14:04:00,
2013-09-29 10:09:00,59.9,53.5,30.15,SW,225,1.8,1.8,79,0.00,,,0.00,WUHU216HW,2013-09-29 14:09:00,
2013-09-29 10:14:00,60.5,54.0,30.15,SSE,158,1.8,2.5,79,0.00,,,0.00,WUHU216HW,2013-09-29 14:14:00,
2013-09-29 10:19:00,61.4,54.5,30.14,SSW,203,2.2,3.4,78,0.00,,,0.00,WUHU216HW,2013-09-29 14:19:00,
2013-09-29 10:24:00,61.9,54.3,30.14,SW,225,2.5,3.4,76,0.00,,,0.00,WUHU216HW,2013-09-29 14:24:00,
2013-09-29 10:29:00,62.3,54.2,30.14,SSE,158,1.8,3.6,75,0.00,,,0.00,WUHU216HW,2013-09-29 14:29:00,
2013-09-29 10:34:00,62.5,54.0,30.14,SSE,158,1.1,3.6,74,0.00,,,0.00,WUHU216HW,2013-09-29 14:34:00,
2013-09-29 10:39:00,63.2,55.4,30.14,East,90,0.2,3.6,76,0.00,,,0.00,WUHU216HW,2013-09-29 14:39:00,
2013-09-29 10:44:00,64.1,56.0,30.14,NNW,338,0.7,1.6,75,0.00,,,0.00,WUHU216HW,2013-09-29 14:44:00,
2013-09-29 10:49:00,65.0,56.5,30.14,ENE,68,0.4,1.8,74,0.00,,,0.00,WUHU216HW,2013-09-29 14:49:00,
2013-09-29 10:54:00,66.1,57.2,30.14,SW,225,0.7,1.8,73,0.00,,,0.00,WUHU216HW,2013-09-29 14:54:00,
2013-09-29 10:59:00,66.6,56.5,30.14,SW,225,1.3,2.5,70,0.00,,,0.00,WUHU216HW,2013-09-29 14:59:00,
2013-09-29 11:05:00,66.8,55.4,30.13,NNW,338,1.1,2.5,67,0.00,,,0.00,WUHU216HW,2013-09-29 15:05:00,
2013-09-29 11:10:00,67.0,54.8,30.14,South,180,0.9,3.1,65,0.00,,,0.00,WUHU216HW,2013-09-29 15:10:00,
2013-09-29 11:15:00,67.1,55.8,30.14,West,270,1.1,3.1,67,0.00,,,0.00,WUHU216HW,2013-09-29 15:15:00,
2013-09-29 11:20:00,67.7,56.7,30.14,East,90,1.6,2.9,68,0.00,,,0.00,WUHU216HW,2013-09-29 15:20:00,
2013-09-29 11:25:00,68.2,56.4,30.14,ESE,113,1.3,2.9,66,0.00,,,0.00,WUHU216HW,2013-09-29 15:25:00,
2013-09-29 11:30:00,68.9,56.3,30.13,SSW,203,0.4,2.7,64,0.00,,,0.00,WUHU216HW,2013-09-29 15:30:00,
2013-09-29 11:35:00,69.5,56.8,30.13,NNW,338,1.6,2.2,64,0.00,,,0.00,WUHU216HW,2013-09-29 15:35:00,
2013-09-29 11:40:00,69.7,56.9,30.13,South,180,4.7,4.7,64,0.00,,,0.00,WUHU216HW,2013-09-29 15:40:00,
2013-09-29 11:45:00,69.8,56.7,30.13,SSW,203,1.1,4.7,63,0.00,,,0.00,WUHU216HW,2013-09-29 15:45:00,
2013-09-29 11:50:00,70.7,57.5,30.13,East,90,0.2,2.7,63,0.00,,,0.00,WUHU216HW,2013-09-29 15:50:00,
2013-09-29 11:55:00,71.3,55.7,30.13,North,0,1.8,3.4,58,0.00,,,0.00,WUHU216HW,2013-09-29 15:55:00,
2013-09-29 12:00:00,70.9,55.9,30.12,SE,135,1.8,3.4,59,0.00,,,0.00,WUHU216HW,2013-09-29 16:00:00,
2013-09-29 12:05:00,70.9,56.4,30.12,SSW,203,1.8,3.4,60,0.00,,,0.00,WUHU216HW,2013-09-29 16:05:00,
2013-09-29 12:10:00,71.5,54.9,30.12,North,0,1.3,2.9,56,0.00,,,0.00,WUHU216HW,2013-09-29 16:10:00,
2013-09-29 12:15:00,71.6,56.1,30.12,ESE,113,2.5,3.1,58,0.00,,,0.00,WUHU216HW,2013-09-29 16:15:00,
2013-09-29 12:20:00,72.2,53.6,30.12,WSW,248,5.4,5.4,52,0.00,,,0.00,WUHU216HW,2013-09-29 16:20:00,
2013-09-29 12:25:00,72.2,55.0,30.12,West,270,0.0,5.4,55,0.00,,,0.00,WUHU216HW,2013-09-29 16:25:00,
2013-09-29 12:30:00,72.4,54.7,30.11,SSW,203,2.2,4.7,54,0.00,,,0.00,WUHU216HW,2013-09-29 16:30:00,
2013-09-29 12:35:00,72.5,55.4,30.11,East,90,0.9,4.7,55,0.00,,,0.00,WUHU216HW,2013-09-29 16:35:00,
2013-09-29 12:40:00,73.1,54.8,30.11,SW,225,1.6,4.7,53,0.00,,,0.00,WUHU216HW,2013-09-29 16:40:00,
2013-09-29 12:45:00,73.4,54.2,30.11,South,180,4.0,4.0,51,0.00,,,0.00,WUHU216HW,2013-09-29 16:45:00,
2013-09-29 12:50:00,73.4,54.2,30.11,SW,225,3.1,4.9,51,0.00,,,0.00,WUHU216HW,2013-09-29 16:50:00,
2013-09-29 12:55:00,73.8,54.0,30.11,SSE,158,1.1,4.9,50,0.00,,,0.00,WUHU216HW,2013-09-29 16:55:00,
2013-09-29 13:00:00,74.3,55.1,30.11,SSW,203,1.8,3.4,51,0.00,,,0.00,WUHU216HW,2013-09-29 17:00:00,
2013-09-29 13:04:00,74.3,54.5,30.11,SSE,158,2.0,3.8,50,0.00,,,0.00,WUHU216HW,2013-09-29 17:04:00,
2013-09-29 13:09:00,74.3,53.9,30.11,SSW,203,4.7,4.7,49,0.00,,,0.00,WUHU216HW,2013-09-29 17:09:00,
2013-09-29 13:15:00,73.6,53.2,30.10,NE,45,0.2,5.6,49,0.00,,,0.00,WUHU216HW,2013-09-29 17:15:00,
2013-09-29 13:19:00,74.0,54.7,30.10,North,0,1.1,5.6,51,0.00,,,0.00,WUHU216HW,2013-09-29 17:19:00,
2013-09-29 13:25:00,75.2,55.4,30.10,SSE,158,2.5,3.6,50,0.00,,,0.00,WUHU216HW,2013-09-29 17:25:00,
2013-09-29 13:30:00,75.8,54.7,30.09,NE,45,0.7,3.1,48,0.00,,,0.00,WUHU216HW,2013-09-29 17:30:00,
2013-09-29 13:35:00,75.8,54.7,30.09,NNW,338,0.2,3.6,48,0.00,,,0.00,WUHU216HW,2013-09-29 17:35:00,
2013-09-29 13:40:00,75.6,55.2,30.08,NE,45,1.1,3.6,49,0.00,,,0.00,WUHU216HW,2013-09-29 17:40:00,
2013-09-29 13:45:00,76.0,54.3,30.08,SSE,158,0.7,1.1,47,0.00,,,0.00,WUHU216HW,2013-09-29 17:45:00,
2013-09-29 13:50:00,75.6,52.8,30.08,WNW,293,3.4,4.9,45,0.00,,,0.00,WUHU216HW,2013-09-29 17:50:00,
2013-09-29 13:55:00,75.6,53.3,30.08,South,180,1.1,4.9,46,0.00,,,0.00,WUHU216HW,2013-09-29 17:55:00,
2013-09-29 14:00:00,75.6,53.3,30.07,WSW,248,1.6,4.5,46,0.00,,,0.00,WUHU216HW,2013-09-29 18:00:00,
2013-09-29 14:05:00,76.0,52.4,30.07,NE,45,0.7,3.1,44,0.00,,,0.00,WUHU216HW,2013-09-29 18:05:00,
2013-09-29 14:10:00,76.0,52.4,30.07,NNW,338,1.1,2.5,44,0.00,,,0.00,WUHU216HW,2013-09-29 18:10:00,
2013-09-29 14:15:00,75.2,52.4,30.07,SSW,203,3.1,3.4,45,0.00,,,0.00,WUHU216HW,2013-09-29 18:15:00,
2013-09-29 14:22:00,73.3,51.7,30.06,SW,225,2.5,3.1,47,0.00,,,0.00,WUHU216HW,2013-09-29 18:22:00,
2013-09-29 14:27:00,73.3,52.3,30.06,South,180,1.8,2.7,48,0.00,,,0.00,WUHU216HW,2013-09-29 18:27:00,
2013-09-29 14:32:00,73.4,51.8,30.06,WSW,248,2.5,2.7,47,0.00,,,0.00,WUHU216HW,2013-09-29 18:32:00,
2013-09-29 14:37:00,73.4,50.7,30.06,SSW,203,1.1,3.4,45,0.00,,,0.00,WUHU216HW,2013-09-29 18:37:00,
2013-09-29 14:42:00,73.4,52.5,30.06,SW,225,1.1,3.4,48,0.00,,,0.00,WUHU216HW,2013-09-29 18:42:00,
2013-09-29 14:47:00,73.6,51.5,30.06,SE,135,2.5,4.3,46,0.00,,,0.00,WUHU216HW,2013-09-29 18:47:00,
2013-09-29 14:52:00,72.9,51.9,30.06,South,180,0.4,4.3,48,0.00,,,0.00,WUHU216HW,2013-09-29 18:52:00,
2013-09-29 14:57:00,72.7,52.4,30.06,NE,45,1.1,2.0,49,0.00,,,0.00,WUHU216HW,2013-09-29 18:57:00,
2013-09-29 15:02:00,72.4,52.1,30.06,SSW,203,0.0,1.1,49,0.00,,,0.00,WUHU216HW,2013-09-29 19:02:00,
2013-09-29 15:07:00,72.0,52.4,30.05,NW,315,0.0,1.1,50,0.00,,,0.00,WUHU216HW,2013-09-29 19:07:00,
2013-09-29 15:12:00,71.8,52.7,30.05,ENE,68,0.4,1.8,51,0.00,,,0.00,WUHU216HW,2013-09-29 19:12:00,
2013-09-29 15:17:00,71.6,52.0,30.05,NNE,23,0.9,2.2,50,0.00,,,0.00,WUHU216HW,2013-09-29 19:17:00,
2013-09-29 15:22:00,71.5,52.4,30.05,SSE,158,1.8,2.2,51,0.00,,,0.00,WUHU216HW,2013-09-29 19:22:00,
2013-09-29 15:28:00,71.5,51.8,30.05,ENE,68,0.2,2.0,50,0.00,,,0.00,WUHU216HW,2013-09-29 19:28:00,
2013-09-29 15:33:00,71.3,51.1,30.05,SSW,203,0.9,1.8,49,0.00,,,0.00,WUHU216HW,2013-09-29 19:33:00,
2013-09-29 15:38:00,71.1,52.0,30.05,SSE,158,0.0,1.8,51,0.00,,,0.00,WUHU216HW,2013-09-29 19:38:00,
2013-09-29 15:43:00,71.5,52.4,30.04,South,180,1.8,1.8,51,0.00,,,0.00,WUHU216HW,2013-09-29 19:43:00,
2013-09-29 15:48:00,71.3,52.2,30.04,SE,135,0.9,2.2,51,0.00,,,0.00,WUHU216HW,2013-09-29 19:48:00,
2013-09-29 15:53:00,71.5,51.8,30.04,SSW,203,2.9,2.9,50,0.00,,,0.00,WUHU216HW,2013-09-29 19:53:00,
2013-09-29 15:58:00,71.6,52.0,30.04,SSW,203,2.2,3.6,50,0.00,,,0.00,WUHU216HW,2013-09-29 19:58:00,
2013-09-29 16:03:00,72.0,51.8,30.03,WSW,248,2.9,3.6,49,0.00,,,0.00,WUHU216HW,2013-09-29 20:03:00,
2013-09-29 16:08:00,71.5,51.3,30.03,SSW,203,2.5,3.4,49,0.00,,,0.00,WUHU216HW,2013-09-29 20:08:00,
2013-09-29 16:13:00,71.5,51.8,30.03,NNE,23,1.6,2.5,50,0.00,,,0.00,WUHU216HW,2013-09-29 20:13:00,
2013-09-29 16:18:00,71.5,51.3,30.03,SSW,203,0.4,3.4,49,0.00,,,0.00,WUHU216HW,2013-09-29 20:18:00,
2013-09-29 16:23:00,71.1,50.9,30.03,WSW,248,1.8,3.4,49,0.00,,,0.00,WUHU216HW,2013-09-29 20:23:00,
2013-09-29 16:28:00,70.9,50.8,30.03,WSW,248,0.2,2.5,49,0.00,,,0.00,WUHU216HW,2013-09-29 20:28:00,
2013-09-29 16:33:00,70.9,51.4,30.03,WNW,293,0.0,2.5,50,0.00,,,0.00,WUHU216HW,2013-09-29 20:33:00,
2013-09-29 16:38:00,70.9,51.4,30.03,SSE,158,1.8,3.1,50,0.00,,,0.00,WUHU216HW,2013-09-29 20:38:00,
2013-09-29 16:43:00,70.9,51.8,30.03,ESE,113,1.1,3.1,51,0.00,,,0.00,WUHU216HW,2013-09-29 20:43:00,
2013-09-29 16:48:00,70.7,51.8,30.02,NE,45,0.4,1.6,51,0.00,,,0.00,WUHU216HW,2013-09-29 20:48:00,
2013-09-29 16:53:00,70.7,51.8,30.03,SSW,203,2.0,2.0,51,0.00,,,0.00,WUHU216HW,2013-09-29 20:53:00,
2013-09-29 16:58:00,70.6,52.0,30.02,SE,135,0.2,2.0,52,0.00,,,0.00,WUHU216HW,2013-09-29 20:58:00,
2013-09-29 17:03:00,70.6,51.0,30.03,SSE,158,3.1,3.1,50,0.00,,,0.00,WUHU216HW,2013-09-29 21:03:00,
2013-09-29 17:08:00,70.4,51.4,30.03,South,180,2.5,3.1,51,0.00,,,0.00,WUHU216HW,2013-09-29 21:08:00,
2013-09-29 17:13:00,70.6,51.0,30.03,SSW,203,2.5,3.1,50,0.00,,,0.00,WUHU216HW,2013-09-29 21:13:00,
2013-09-29 17:18:00,70.6,51.6,30.02,WNW,293,0.0,3.1,51,0.00,,,0.00,WUHU216HW,2013-09-29 21:18:00,
2013-09-29 17:23:00,70.6,52.0,30.02,ESE,113,0.4,3.1,52,0.00,,,0.00,WUHU216HW,2013-09-29 21:23:00,
2013-09-29 17:28:00,70.6,51.0,30.02,ESE,113,0.9,1.8,50,0.00,,,0.00,WUHU216HW,2013-09-29 21:28:00,
2013-09-29 17:33:00,70.4,51.4,30.02,NNE,23,1.3,1.8,51,0.00,,,0.00,WUHU216HW,2013-09-29 21:33:00,
2013-09-29 17:38:00,70.6,52.0,30.03,SSE,158,0.0,1.6,52,0.00,,,0.00,WUHU216HW,2013-09-29 21:38:00,
2013-09-29 17:43:00,70.2,51.8,30.03,East,90,1.3,1.3,52,0.00,,,0.00,WUHU216HW,2013-09-29 21:43:00,
2013-09-29 17:49:00,69.8,51.0,30.03,SSE,158,0.0,1.3,51,0.00,,,0.00,WUHU216HW,2013-09-29 21:49:00,
2013-09-29 17:54:00,69.8,51.4,30.04,SSW,203,0.7,1.1,52,0.00,,,0.00,WUHU216HW,2013-09-29 21:54:00,
2013-09-29 17:59:00,69.7,51.2,30.04,North,0,0.0,0.7,52,0.00,,,0.00,WUHU216HW,2013-09-29 21:59:00,
2013-09-29 18:04:00,69.5,51.1,30.04,South,180,0.0,0.4,52,0.00,,,0.00,WUHU216HW,2013-09-29 22:04:00,
2013-09-29 18:09:00,69.5,51.1,30.04,ESE,113,0.0,1.1,52,0.00,,,0.00,WUHU216HW,2013-09-29 22:09:00,
2013-09-29 18:14:00,69.5,51.1,30.04,NE,45,0.7,1.6,52,0.00,,,0.00,WUHU216HW,2013-09-29 22:14:00,
2013-09-29 18:19:00,69.3,51.0,30.04,ESE,113,0.0,1.6,52,0.00,,,0.00,WUHU216HW,2013-09-29 22:19:00,
2013-09-29 18:24:00,69.1,50.8,30.03,NNE,23,0.4,0.9,52,0.00,,,0.00,WUHU216HW,2013-09-29 22:24:00,
2013-09-29 18:29:00,68.8,50.0,30.04,SE,135,1.1,2.2,51,0.00,,,0.00,WUHU216HW,2013-09-29 22:29:00,
2013-09-29 18:34:00,68.8,50.4,30.03,ENE,68,0.0,2.2,52,0.00,,,0.00,WUHU216HW,2013-09-29 22:34:00,
2013-09-29 18:39:00,68.6,50.2,30.03,ESE,113,0.4,3.8,52,0.00,,,0.00,WUHU216HW,2013-09-29 22:39:00,
2013-09-29 18:44:00,68.4,50.6,30.03,ENE,68,0.2,3.8,53,0.00,,,0.00,WUHU216HW,2013-09-29 22:44:00,
2013-09-29 18:49:00,68.0,50.2,30.03,ESE,113,0.0,0.9,53,0.00,,,0.00,WUHU216HW,2013-09-29 22:49:00,
2013-09-29 18:54:00,67.7,50.4,30.03,East,90,0.0,1.1,54,0.00,,,0.00,WUHU216HW,2013-09-29 22:54:00,
2013-09-29 18:59:00,67.3,50.0,30.03,ESE,113,0.0,1.1,54,0.00,,,0.00,WUHU216HW,2013-09-29 22:59:00,
2013-09-29 19:04:00,67.1,50.4,30.03,East,90,0.4,0.4,55,0.00,,,0.00,WUHU216HW,2013-09-29 23:04:00,
2013-09-29 19:09:00,66.8,50.0,30.03,ESE,113,0.0,0.4,55,0.00,,,0.00,WUHU216HW,2013-09-29 23:09:00,
2013-09-29 19:14:00,66.4,50.2,30.03,ESE,113,0.0,0.0,56,0.00,,,0.00,WUHU216HW,2013-09-29 23:14:00,
2013-09-29 19:19:00,65.9,49.7,30.03,ESE,113,0.0,0.0,56,0.00,,,0.00,WUHU216HW,2013-09-29 23:19:00,
2013-09-29 19:24:00,65.7,49.5,30.03,ESE,113,0.0,0.0,56,0.00,,,0.00,WUHU216HW,2013-09-29 23:24:00,
2013-09-29 19:29:00,65.2,49.5,30.03,ESE,113,0.0,0.0,57,0.00,,,0.00,WUHU216HW,2013-09-29 23:29:00,
2013-09-29 19:34:00,64.8,49.2,30.03,ESE,113,0.0,0.0,57,0.00,,,0.00,WUHU216HW,2013-09-29 23:34:00,
2013-09-29 19:39:00,64.4,49.2,30.03,ESE,113,0.0,0.0,58,0.00,,,0.00,WUHU216HW,2013-09-29 23:39:00,
2013-09-29 19:44:00,63.9,49.2,30.03,ESE,113,0.0,0.0,59,0.00,,,0.00,WUHU216HW,2013-09-29 23:44:00,
2013-09-29 19:50:00,63.5,49.0,30.03,ESE,113,0.0,0.0,59,0.00,,,0.00,WUHU216HW,2013-09-29 23:50:00,
2013-09-29 19:55:00,63.0,49.0,30.03,ESE,113,0.0,0.0,60,0.00,,,0.00,WUHU216HW,2013-09-29 23:55:00,
2013-09-29 20:00:00,62.6,49.1,30.03,ESE,113,0.0,0.0,61,0.00,,,0.00,WUHU216HW,2013-09-30 00:00:00,
2013-09-29 20:05:00,62.3,49.2,30.03,ESE,113,0.0,0.0,62,0.00,,,0.00,WUHU216HW,2013-09-30 00:05:00,
2013-09-29 20:10:00,61.9,48.8,30.03,ESE,113,0.0,0.0,62,0.00,,,0.00,WUHU216HW,2013-09-30 00:10:00,
2013-09-29 20:15:00,61.6,48.9,30.03,ESE,113,0.0,0.0,63,0.00,,,0.00,WUHU216HW,2013-09-30 00:15:00,
2013-09-29 20:20:00,61.2,48.5,30.03,ESE,113,0.0,0.0,63,0.00,,,0.00,WUHU216HW,2013-09-30 00:20:00,
2013-09-29 20:25:00,60.8,48.6,30.03,ESE,113,0.0,0.0,64,0.00,,,0.00,WUHU216HW,2013-09-30 00:25:00,
2013-09-29 20:30:00,60.7,48.4,30.03,ESE,113,0.0,0.0,64,0.00,,,0.00,WUHU216HW,2013-09-30 00:30:00,
2013-09-29 20:35:00,60.3,48.5,30.03,ESE,113,0.0,0.0,65,0.00,,,0.00,WUHU216HW,2013-09-30 00:35:00,
2013-09-29 20:40:00,59.9,47.7,30.03,ESE,113,0.0,0.0,64,0.00,,,0.00,WUHU216HW,2013-09-30 00:40:00,
2013-09-29 20:45:00,59.8,47.5,30.04,ESE,113,0.0,0.0,64,0.00,,,0.00,WUHU216HW,2013-09-30 00:45:00,
2013-09-29 20:50:00,59.6,47.8,30.03,ESE,113,0.0,0.0,65,0.00,,,0.00,WUHU216HW,2013-09-30 00:50:00,
2013-09-29 20:55:00,59.0,47.3,30.04,ESE,113,0.0,0.0,65,0.00,,,0.00,WUHU216HW,2013-09-30 00:55:00,
2013-09-29 21:00:00,58.7,47.4,30.04,ESE,113,0.0,0.0,66,0.00,,,0.00,WUHU216HW,2013-09-30 01:00:00,
2013-09-29 21:05:00,58.3,47.3,30.04,ESE,113,0.0,0.0,67,0.00,,,0.00,WUHU216HW,2013-09-30 01:05:00,
2013-09-29 21:10:00,57.8,47.3,30.04,ESE,113,0.0,0.0,68,0.00,,,0.00,WUHU216HW,2013-09-30 01:10:00,
2013-09-29 21:15:00,57.4,46.9,30.04,ESE,113,0.0,0.0,68,0.00,,,0.00,WUHU216HW,2013-09-30 01:15:00,
2013-09-29 21:20:00,57.4,47.4,30.04,ESE,113,0.0,0.0,69,0.00,,,0.00,WUHU216HW,2013-09-30 01:20:00,
2013-09-29 21:25:00,57.4,47.4,30.04,ESE,113,0.0,0.0,69,0.00,,,0.00,WUHU216HW,2013-09-30 01:25:00,
2013-09-29 21:30:00,57.2,47.2,30.04,ESE,113,0.0,0.0,69,0.00,,,0.00,WUHU216HW,2013-09-30 01:30:00,
2013-09-29 21:35:00,56.9,46.8,30.04,ESE,113,0.0,0.0,69,0.00,,,0.00,WUHU216HW,2013-09-30 01:35:00,
2013-09-29 21:40:00,56.5,46.9,30.04,ESE,113,0.0,0.0,70,0.00,,,0.00,WUHU216HW,2013-09-30 01:40:00,
2013-09-29 21:45:00,56.2,46.5,30.04,ESE,113,0.0,0.0,70,0.00,,,0.00,WUHU216HW,2013-09-30 01:45:00,
2013-09-29 21:50:00,56.0,46.7,30.04,ESE,113,0.0,0.0,71,0.00,,,0.00,WUHU216HW,2013-09-30 01:50:00,
2013-09-29 21:55:00,55.8,46.5,30.04,ESE,113,0.0,0.0,71,0.00,,,0.00,WUHU216HW,2013-09-30 01:55:00,
2013-09-29 22:00:00,55.8,46.5,30.04,ESE,113,0.0,0.0,71,0.00,,,0.00,WUHU216HW,2013-09-30 02:00:00,
2013-09-29 22:05:00,55.6,46.5,30.04,ESE,113,0.0,0.0,71,0.00,,,0.00,WUHU216HW,2013-09-30 02:05:00,
2013-09-29 22:10:00,55.4,46.9,30.04,ESE,113,0.0,0.0,73,0.00,,,0.00,WUHU216HW,2013-09-30 02:10:00,
2013-09-29 22:15:00,54.9,46.5,30.04,ESE,113,0.0,0.0,73,0.00,,,0.00,WUHU216HW,2013-09-30 02:15:00,
2013-09-29 22:19:00,54.7,46.3,30.04,ESE,113,0.0,0.0,73,0.00,,,0.00,WUHU216HW,2013-09-30 02:19:00,
2013-09-29 22:25:00,54.4,46.6,30.04,ESE,113,0.0,0.0,75,0.00,,,0.00,WUHU216HW,2013-09-30 02:25:00,
2013-09-29 22:30:00,54.2,46.5,30.04,ESE,113,0.0,0.0,75,0.00,,,0.00,WUHU216HW,2013-09-30 02:30:00,
2013-09-29 22:35:00,54.0,46.3,30.04,ESE,113,0.0,0.0,75,0.00,,,0.00,WUHU216HW,2013-09-30 02:35:00,
2013-09-29 22:40:00,53.8,46.1,30.04,ESE,113,0.0,0.0,75,0.00,,,0.00,WUHU216HW,2013-09-30 02:40:00,
2013-09-29 22:45:00,54.0,46.3,30.04,ESE,113,0.0,0.4,75,0.00,,,0.00,WUHU216HW,2013-09-30 02:45:00,
2013-09-29 22:50:00,54.0,46.3,30.04,ESE,113,0.0,0.4,75,0.00,,,0.00,WUHU216HW,2013-09-30 02:50:00,
2013-09-29 22:55:00,54.0,46.3,30.04,ESE,113,0.0,0.0,75,0.00,,,0.00,WUHU216HW,2013-09-30 02:55:00,
2013-09-29 23:00:00,53.8,46.1,30.04,ESE,113,0.0,0.0,75,0.00,,,0.00,WUHU216HW,2013-09-30 03:00:00,
2013-09-29 23:05:00,53.8,46.1,30.04,ESE,113,0.0,0.2,75,0.00,,,0.00,WUHU216HW,2013-09-30 03:05:00,
2013-09-29 23:10:00,53.8,46.1,30.04,ESE,113,0.0,0.2,75,0.00,,,0.00,WUHU216HW,2013-09-30 03:10:00,
2013-09-29 23:14:00,53.6,45.9,30.04,ESE,113,0.2,0.2,75,0.00,,,0.00,WUHU216HW,2013-09-30 03:14:00,
2013-09-29 23:19:00,53.5,45.7,30.04,ESE,113,0.0,0.4,75,0.00,,,0.00,WUHU216HW,2013-09-30 03:19:00,
2013-09-29 23:24:00,53.3,45.5,30.04,ESE,113,0.0,0.4,75,0.00,,,0.00,WUHU216HW,2013-09-30 03:24:00,
2013-09-29 23:30:00,53.1,45.4,30.04,ESE,113,0.0,0.0,75,0.00,,,0.00,WUHU216HW,2013-09-30 03:30:00,
2013-09-29 23:35:00,52.9,45.2,30.03,ESE,113,0.0,0.0,75,0.00,,,0.00,WUHU216HW,2013-09-30 03:35:00,
2013-09-29 23:40:00,52.7,45.4,30.04,ESE,113,0.0,0.0,76,0.00,,,0.00,WUHU216HW,2013-09-30 03:40:00,
2013-09-29 23:45:00,52.4,45.7,30.03,ESE,113,0.0,0.0,78,0.00,,,0.00,WUHU216HW,2013-09-30 03:45:00,
2013-09-29 23:50:00,51.8,45.2,30.03,ESE,113,0.0,0.0,78,0.00,,,0.00,WUHU216HW,2013-09-30 03:50:00,
2013-09-29 23:56:00,51.5,44.8,30.03,ESE,113,0.0,0.0,78,0.00,,,0.00,WUHU216HW,2013-09-30 03:56:00,